sensor_id;sensor_type;location;lat;lon;timestamp;P1;durP1;ratioP1;P2;durP2;ratioP2
55007;SDS011;40902;45.116;21.296;2024-02-21T00:00:55;59.58;;;41.70;;
55007;SDS011;40902;45.116;21.296;2024-02-21T00:03:21;58.75;;;40.80;;
55007;SDS011;40902;45.116;21.296;2024-02-21T00:05:47;62.40;;;41.08;;
55007;SDS011;40902;45.116;21.296;2024-02-21T00:08:13;58.15;;;40.63;;
55007;SDS011;40902;45.116;21.296;2024-02-21T00:10:39;64.50;;;43.03;;
55007;SDS011;40902;45.116;21.296;2024-02-21T00:13:05;64.55;;;44.30;;
55007;SDS011;40902;45.116;21.296;2024-02-21T00:15:30;59.85;;;42.15;;
55007;SDS011;40902;45.116;21.296;2024-02-21T00:17:56;58.50;;;41.05;;
55007;SDS011;40902;45.116;21.296;2024-02-21T00:20:22;61.63;;;42.65;;
55007;SDS011;40902;45.116;21.296;2024-02-21T00:22:48;62.30;;;42.67;;
55007;SDS011;40902;45.116;21.296;2024-02-21T00:25:13;62.55;;;43.80;;
55007;SDS011;40902;45.116;21.296;2024-02-21T00:27:39;61.08;;;42.88;;
55007;SDS011;40902;45.116;21.296;2024-02-21T00:30:05;60.33;;;41.95;;
55007;SDS011;40902;45.116;21.296;2024-02-21T00:32:31;63.03;;;42.38;;
55007;SDS011;40902;45.116;21.296;2024-02-21T00:34:59;62.45;;;44.00;;
55007;SDS011;40902;45.116;21.296;2024-02-21T00:37:25;61.85;;;43.10;;
55007;SDS011;40902;45.116;21.296;2024-02-21T00:39:50;62.30;;;42.33;;
55007;SDS011;40902;45.116;21.296;2024-02-21T00:42:16;59.35;;;41.38;;
55007;SDS011;40902;45.116;21.296;2024-02-21T00:44:43;60.60;;;41.17;;
55007;SDS011;40902;45.116;21.296;2024-02-21T00:47:09;62.83;;;41.50;;
55007;SDS011;40902;45.116;21.296;2024-02-21T00:49:35;58.53;;;41.38;;
55007;SDS011;40902;45.116;21.296;2024-02-21T00:52:01;57.15;;;42.45;;
55007;SDS011;40902;45.116;21.296;2024-02-21T00:54:27;64.25;;;42.42;;
55007;SDS011;40902;45.116;21.296;2024-02-21T00:56:52;58.60;;;41.05;;
55007;SDS011;40902;45.116;21.296;2024-02-21T00:59:18;58.35;;;42.10;;
55007;SDS011;40902;45.116;21.296;2024-02-21T01:01:45;60.63;;;41.38;;
55007;SDS011;40902;45.116;21.296;2024-02-21T01:04:10;61.17;;;42.10;;
55007;SDS011;40902;45.116;21.296;2024-02-21T01:06:36;60.88;;;41.95;;
55007;SDS011;40902;45.116;21.296;2024-02-21T01:09:02;60.97;;;42.17;;
55007;SDS011;40902;45.116;21.296;2024-02-21T01:11:29;60.42;;;41.25;;
55007;SDS011;40902;45.116;21.296;2024-02-21T01:13:55;57.00;;;41.50;;
55007;SDS011;40902;45.116;21.296;2024-02-21T01:16:21;61.15;;;41.25;;
55007;SDS011;40902;45.116;21.296;2024-02-21T01:18:46;57.85;;;41.28;;
55007;SDS011;40902;45.116;21.296;2024-02-21T01:21:12;61.90;;;42.70;;
55007;SDS011;40902;45.116;21.296;2024-02-21T01:23:38;64.38;;;41.63;;
55007;SDS011;40902;45.116;21.296;2024-02-21T01:26:05;61.80;;;40.83;;
55007;SDS011;40902;45.116;21.296;2024-02-21T01:28:33;62.08;;;40.38;;
55007;SDS011;40902;45.116;21.296;2024-02-21T01:30:59;60.50;;;41.58;;
55007;SDS011;40902;45.116;21.296;2024-02-21T01:33:25;55.95;;;40.22;;
55007;SDS011;40902;45.116;21.296;2024-02-21T01:35:51;59.08;;;42.20;;
55007;SDS011;40902;45.116;21.296;2024-02-21T01:38:16;56.55;;;39.40;;
55007;SDS011;40902;45.116;21.296;2024-02-21T01:40:42;57.63;;;40.78;;
55007;SDS011;40902;45.116;21.296;2024-02-21T01:43:20;55.63;;;39.13;;
55007;SDS011;40902;45.116;21.296;2024-02-21T01:45:47;55.63;;;39.53;;
55007;SDS011;40902;45.116;21.296;2024-02-21T01:48:23;68.63;;;42.10;;
55007;SDS011;40902;45.116;21.296;2024-02-21T01:50:50;61.78;;;42.45;;
55007;SDS011;40902;45.116;21.296;2024-02-21T01:53:18;61.75;;;42.30;;
55007;SDS011;40902;45.116;21.296;2024-02-21T01:55:46;58.70;;;41.47;;
55007;SDS011;40902;45.116;21.296;2024-02-21T01:58:16;55.88;;;39.90;;
55007;SDS011;40902;45.116;21.296;2024-02-21T02:00:43;60.20;;;42.00;;
55007;SDS011;40902;45.116;21.296;2024-02-21T02:03:10;60.22;;;43.47;;
55007;SDS011;40902;45.116;21.296;2024-02-21T02:05:48;64.28;;;43.83;;
55007;SDS011;40902;45.116;21.296;2024-02-21T02:08:21;60.23;;;42.60;;
55007;SDS011;40902;45.116;21.296;2024-02-21T02:10:49;60.80;;;42.70;;
55007;SDS011;40902;45.116;21.296;2024-02-21T02:13:15;58.03;;;39.97;;
55007;SDS011;40902;45.116;21.296;2024-02-21T02:15:45;56.92;;;40.95;;
55007;SDS011;40902;45.116;21.296;2024-02-21T02:18:14;57.05;;;40.90;;
55007;SDS011;40902;45.116;21.296;2024-02-21T02:20:41;55.70;;;40.63;;
55007;SDS011;40902;45.116;21.296;2024-02-21T02:25:36;56.47;;;39.97;;
55007;SDS011;40902;45.116;21.296;2024-02-21T02:28:03;59.13;;;37.92;;
55007;SDS011;40902;45.116;21.296;2024-02-21T02:30:31;57.50;;;39.17;;
55007;SDS011;40902;45.116;21.296;2024-02-21T02:32:59;56.17;;;39.60;;
55007;SDS011;40902;45.116;21.296;2024-02-21T02:35:25;57.75;;;39.85;;
55007;SDS011;40902;45.116;21.296;2024-02-21T02:37:50;57.30;;;39.55;;
55007;SDS011;40902;45.116;21.296;2024-02-21T02:40:17;61.85;;;41.47;;
55007;SDS011;40902;45.116;21.296;2024-02-21T02:42:43;61.75;;;40.75;;
55007;SDS011;40902;45.116;21.296;2024-02-21T02:45:09;59.33;;;40.65;;
55007;SDS011;40902;45.116;21.296;2024-02-21T02:47:35;57.72;;;40.40;;
55007;SDS011;40902;45.116;21.296;2024-02-21T02:50:01;56.58;;;40.80;;
55007;SDS011;40902;45.116;21.296;2024-02-21T02:52:27;55.33;;;39.20;;
55007;SDS011;40902;45.116;21.296;2024-02-21T02:54:53;58.63;;;42.00;;
55007;SDS011;40902;45.116;21.296;2024-02-21T02:57:21;54.03;;;37.35;;
55007;SDS011;40902;45.116;21.296;2024-02-21T02:59:47;60.03;;;41.72;;
55007;SDS011;40902;45.116;21.296;2024-02-21T03:02:14;56.33;;;39.53;;
55007;SDS011;40902;45.116;21.296;2024-02-21T03:04:39;64.88;;;41.50;;
55007;SDS011;40902;45.116;21.296;2024-02-21T03:07:05;58.63;;;42.20;;
55007;SDS011;40902;45.116;21.296;2024-02-21T03:09:31;56.35;;;40.42;;
55007;SDS011;40902;45.116;21.296;2024-02-21T03:11:57;58.95;;;40.08;;
55007;SDS011;40902;45.116;21.296;2024-02-21T03:14:30;55.47;;;40.53;;
55007;SDS011;40902;45.116;21.296;2024-02-21T03:16:57;56.20;;;40.42;;
55007;SDS011;40902;45.116;21.296;2024-02-21T03:19:23;59.20;;;40.30;;
55007;SDS011;40902;45.116;21.296;2024-02-21T03:21:49;57.40;;;40.97;;
55007;SDS011;40902;45.116;21.296;2024-02-21T03:24:18;57.88;;;41.80;;
55007;SDS011;40902;45.116;21.296;2024-02-21T03:26:44;59.65;;;41.58;;
55007;SDS011;40902;45.116;21.296;2024-02-21T03:29:12;58.85;;;41.85;;
55007;SDS011;40902;45.116;21.296;2024-02-21T03:31:39;58.30;;;41.28;;
55007;SDS011;40902;45.116;21.296;2024-02-21T03:34:05;63.63;;;43.10;;
55007;SDS011;40902;45.116;21.296;2024-02-21T03:36:30;58.75;;;42.00;;
55007;SDS011;40902;45.116;21.296;2024-02-21T03:38:56;59.28;;;42.45;;
55007;SDS011;40902;45.116;21.296;2024-02-21T03:41:22;59.25;;;41.35;;
55007;SDS011;40902;45.116;21.296;2024-02-21T03:43:48;58.92;;;41.55;;
55007;SDS011;40902;45.116;21.296;2024-02-21T03:46:14;61.42;;;41.83;;
55007;SDS011;40902;45.116;21.296;2024-02-21T03:48:40;59.53;;;40.83;;
55007;SDS011;40902;45.116;21.296;2024-02-21T03:51:06;58.60;;;41.95;;
55007;SDS011;40902;45.116;21.296;2024-02-21T03:53:32;62.67;;;42.72;;
55007;SDS011;40902;45.116;21.296;2024-02-21T03:56:00;65.45;;;43.78;;
55007;SDS011;40902;45.116;21.296;2024-02-21T03:58:32;59.67;;;41.53;;
55007;SDS011;40902;45.116;21.296;2024-02-21T04:01:02;57.33;;;41.25;;
55007;SDS011;40902;45.116;21.296;2024-02-21T04:03:28;57.30;;;39.97;;
55007;SDS011;40902;45.116;21.296;2024-02-21T04:05:54;60.05;;;42.08;;
55007;SDS011;40902;45.116;21.296;2024-02-21T04:08:20;54.58;;;39.53;;
55007;SDS011;40902;45.116;21.296;2024-02-21T04:10:47;63.17;;;41.10;;
55007;SDS011;40902;45.116;21.296;2024-02-21T04:13:12;54.35;;;39.22;;
55007;SDS011;40902;45.116;21.296;2024-02-21T04:15:38;58.58;;;41.85;;
55007;SDS011;40902;45.116;21.296;2024-02-21T04:18:04;57.22;;;42.13;;
55007;SDS011;40902;45.116;21.296;2024-02-21T04:20:30;62.47;;;43.50;;
55007;SDS011;40902;45.116;21.296;2024-02-21T04:22:56;60.65;;;42.00;;
55007;SDS011;40902;45.116;21.296;2024-02-21T04:25:22;62.67;;;43.40;;
55007;SDS011;40902;45.116;21.296;2024-02-21T04:27:47;58.88;;;40.53;;
55007;SDS011;40902;45.116;21.296;2024-02-21T04:30:13;57.03;;;42.75;;
55007;SDS011;40902;45.116;21.296;2024-02-21T04:32:40;58.83;;;42.15;;
55007;SDS011;40902;45.116;21.296;2024-02-21T04:35:06;59.90;;;41.25;;
55007;SDS011;40902;45.116;21.296;2024-02-21T04:37:33;62.00;;;42.25;;
55007;SDS011;40902;45.116;21.296;2024-02-21T04:39:58;61.30;;;41.63;;
55007;SDS011;40902;45.116;21.296;2024-02-21T04:42:24;63.25;;;42.60;;
55007;SDS011;40902;45.116;21.296;2024-02-21T04:44:50;67.75;;;45.58;;
55007;SDS011;40902;45.116;21.296;2024-02-21T04:47:16;63.42;;;43.10;;
55007;SDS011;40902;45.116;21.296;2024-02-21T04:49:42;57.03;;;39.90;;
55007;SDS011;40902;45.116;21.296;2024-02-21T04:52:07;63.38;;;43.15;;
55007;SDS011;40902;45.116;21.296;2024-02-21T04:54:33;59.40;;;41.75;;
55007;SDS011;40902;45.116;21.296;2024-02-21T04:57:02;59.60;;;42.20;;
55007;SDS011;40902;45.116;21.296;2024-02-21T04:59:28;61.47;;;43.35;;
55007;SDS011;40902;45.116;21.296;2024-02-21T05:01:54;66.47;;;43.95;;
55007;SDS011;40902;45.116;21.296;2024-02-21T05:04:20;63.45;;;42.65;;
55007;SDS011;40902;45.116;21.296;2024-02-21T05:06:46;61.97;;;42.22;;
55007;SDS011;40902;45.116;21.296;2024-02-21T05:09:11;60.65;;;42.20;;
55007;SDS011;40902;45.116;21.296;2024-02-21T05:11:37;64.45;;;42.70;;
55007;SDS011;40902;45.116;21.296;2024-02-21T05:14:04;63.42;;;43.85;;
55007;SDS011;40902;45.116;21.296;2024-02-21T05:16:30;66.65;;;43.60;;
55007;SDS011;40902;45.116;21.296;2024-02-21T05:18:56;63.55;;;43.05;;
55007;SDS011;40902;45.116;21.296;2024-02-21T05:21:22;60.72;;;42.80;;
55007;SDS011;40902;45.116;21.296;2024-02-21T05:23:53;59.35;;;44.40;;
55007;SDS011;40902;45.116;21.296;2024-02-21T05:28:49;69.10;;;45.67;;
55007;SDS011;40902;45.116;21.296;2024-02-21T05:31:17;58.45;;;41.20;;
55007;SDS011;40902;45.116;21.296;2024-02-21T05:33:44;52.33;;;35.83;;
55007;SDS011;40902;45.116;21.296;2024-02-21T05:36:10;52.53;;;36.40;;
55007;SDS011;40902;45.116;21.296;2024-02-21T05:38:36;52.28;;;35.55;;
55007;SDS011;40902;45.116;21.296;2024-02-21T05:41:03;39.63;;;27.55;;
55007;SDS011;40902;45.116;21.296;2024-02-21T05:43:29;33.35;;;23.80;;
55007;SDS011;40902;45.116;21.296;2024-02-21T05:45:55;33.28;;;22.75;;
55007;SDS011;40902;45.116;21.296;2024-02-21T05:48:21;30.88;;;21.92;;
55007;SDS011;40902;45.116;21.296;2024-02-21T05:50:48;28.73;;;20.83;;
55007;SDS011;40902;45.116;21.296;2024-02-21T05:53:13;27.73;;;20.02;;
55007;SDS011;40902;45.116;21.296;2024-02-21T05:55:40;27.88;;;19.85;;
55007;SDS011;40902;45.116;21.296;2024-02-21T05:58:05;29.42;;;19.25;;
55007;SDS011;40902;45.116;21.296;2024-02-21T06:00:32;30.00;;;19.23;;
55007;SDS011;40902;45.116;21.296;2024-02-21T06:02:58;27.08;;;19.92;;
55007;SDS011;40902;45.116;21.296;2024-02-21T06:05:24;29.35;;;20.15;;
55007;SDS011;40902;45.116;21.296;2024-02-21T06:07:50;26.58;;;19.40;;
55007;SDS011;40902;45.116;21.296;2024-02-21T06:10:16;28.15;;;18.83;;
55007;SDS011;40902;45.116;21.296;2024-02-21T06:12:41;25.13;;;16.88;;
55007;SDS011;40902;45.116;21.296;2024-02-21T06:15:07;23.48;;;17.25;;
55007;SDS011;40902;45.116;21.296;2024-02-21T06:17:33;26.17;;;20.15;;
55007;SDS011;40902;45.116;21.296;2024-02-21T06:19:59;105.15;;;86.65;;
55007;SDS011;40902;45.116;21.296;2024-02-21T06:22:25;112.45;;;94.07;;
55007;SDS011;40902;45.116;21.296;2024-02-21T06:24:50;112.30;;;92.78;;
55007;SDS011;40902;45.116;21.296;2024-02-21T06:27:16;72.22;;;60.45;;
55007;SDS011;40902;45.116;21.296;2024-02-21T06:29:42;37.35;;;29.77;;
55007;SDS011;40902;45.116;21.296;2024-02-21T06:32:08;32.63;;;22.90;;
55007;SDS011;40902;45.116;21.296;2024-02-21T06:34:34;32.55;;;26.38;;
55007;SDS011;40902;45.116;21.296;2024-02-21T06:37:00;31.25;;;22.50;;
55007;SDS011;40902;45.116;21.296;2024-02-21T06:39:25;37.55;;;30.73;;
55007;SDS011;40902;45.116;21.296;2024-02-21T06:41:53;34.80;;;28.95;;
55007;SDS011;40902;45.116;21.296;2024-02-21T06:44:21;26.40;;;18.40;;
55007;SDS011;40902;45.116;21.296;2024-02-21T06:46:47;40.45;;;32.83;;
55007;SDS011;40902;45.116;21.296;2024-02-21T06:49:13;28.73;;;21.75;;
55007;SDS011;40902;45.116;21.296;2024-02-21T06:51:41;22.05;;;15.38;;
55007;SDS011;40902;45.116;21.296;2024-02-21T06:54:08;20.38;;;15.05;;
55007;SDS011;40902;45.116;21.296;2024-02-21T06:56:35;21.35;;;14.25;;
55007;SDS011;40902;45.116;21.296;2024-02-21T06:59:01;19.75;;;13.70;;
55007;SDS011;40902;45.116;21.296;2024-02-21T07:01:28;23.05;;;16.05;;
55007;SDS011;40902;45.116;21.296;2024-02-21T07:03:57;22.27;;;15.85;;
55007;SDS011;40902;45.116;21.296;2024-02-21T07:06:23;23.20;;;16.17;;
55007;SDS011;40902;45.116;21.296;2024-02-21T07:08:49;22.45;;;16.38;;
55007;SDS011;40902;45.116;21.296;2024-02-21T07:11:15;22.88;;;15.73;;
55007;SDS011;40902;45.116;21.296;2024-02-21T07:13:40;21.60;;;15.35;;
55007;SDS011;40902;45.116;21.296;2024-02-21T07:16:06;20.13;;;14.57;;
55007;SDS011;40902;45.116;21.296;2024-02-21T07:18:33;19.80;;;15.13;;
55007;SDS011;40902;45.116;21.296;2024-02-21T07:20:59;18.10;;;13.45;;
55007;SDS011;40902;45.116;21.296;2024-02-21T07:23:25;19.20;;;14.65;;
55007;SDS011;40902;45.116;21.296;2024-02-21T07:25:50;21.13;;;14.35;;
55007;SDS011;40902;45.116;21.296;2024-02-21T07:28:16;21.33;;;14.13;;
55007;SDS011;40902;45.116;21.296;2024-02-21T07:30:42;23.40;;;15.23;;
55007;SDS011;40902;45.116;21.296;2024-02-21T07:33:08;22.15;;;15.13;;
55007;SDS011;40902;45.116;21.296;2024-02-21T07:35:34;21.05;;;14.93;;
55007;SDS011;40902;45.116;21.296;2024-02-21T07:38:03;22.08;;;15.48;;
55007;SDS011;40902;45.116;21.296;2024-02-21T07:40:30;21.60;;;16.77;;
55007;SDS011;40902;45.116;21.296;2024-02-21T07:42:55;24.35;;;17.65;;
55007;SDS011;40902;45.116;21.296;2024-02-21T07:45:21;25.98;;;18.65;;
55007;SDS011;40902;45.116;21.296;2024-02-21T07:47:48;70.85;;;38.58;;
55007;SDS011;40902;45.116;21.296;2024-02-21T07:50:14;26.20;;;19.05;;
55007;SDS011;40902;45.116;21.296;2024-02-21T07:52:40;24.60;;;17.50;;
55007;SDS011;40902;45.116;21.296;2024-02-21T07:55:07;21.30;;;15.82;;
55007;SDS011;40902;45.116;21.296;2024-02-21T07:57:33;21.45;;;15.27;;
55007;SDS011;40902;45.116;21.296;2024-02-21T07:59:58;23.95;;;16.33;;
55007;SDS011;40902;45.116;21.296;2024-02-21T08:02:24;24.65;;;20.00;;
55007;SDS011;40902;45.116;21.296;2024-02-21T08:04:50;21.45;;;15.95;;
55007;SDS011;40902;45.116;21.296;2024-02-21T08:07:16;25.90;;;17.85;;
55007;SDS011;40902;45.116;21.296;2024-02-21T08:09:41;23.08;;;17.17;;
55007;SDS011;40902;45.116;21.296;2024-02-21T08:12:07;26.70;;;18.33;;
55007;SDS011;40902;45.116;21.296;2024-02-21T08:14:33;22.80;;;15.90;;
55007;SDS011;40902;45.116;21.296;2024-02-21T08:16:59;19.88;;;16.15;;
55007;SDS011;40902;45.116;21.296;2024-02-21T08:19:24;18.45;;;13.50;;
55007;SDS011;40902;45.116;21.296;2024-02-21T08:21:50;18.45;;;14.57;;
55007;SDS011;40902;45.116;21.296;2024-02-21T08:24:16;16.98;;;12.85;;
55007;SDS011;40902;45.116;21.296;2024-02-21T08:26:42;18.15;;;13.88;;
55007;SDS011;40902;45.116;21.296;2024-02-21T08:29:11;15.38;;;12.30;;
55007;SDS011;40902;45.116;21.296;2024-02-21T08:31:37;13.75;;;11.38;;
55007;SDS011;40902;45.116;21.296;2024-02-21T08:34:03;14.65;;;11.23;;
55007;SDS011;40902;45.116;21.296;2024-02-21T08:36:29;15.35;;;11.40;;
55007;SDS011;40902;45.116;21.296;2024-02-21T08:39:00;15.27;;;12.07;;
55007;SDS011;40902;45.116;21.296;2024-02-21T08:41:28;13.45;;;10.38;;
55007;SDS011;40902;45.116;21.296;2024-02-21T08:43:56;15.07;;;11.07;;
55007;SDS011;40902;45.116;21.296;2024-02-21T08:46:25;14.15;;;11.07;;
55007;SDS011;40902;45.116;21.296;2024-02-21T08:48:52;13.40;;;11.30;;
55007;SDS011;40902;45.116;21.296;2024-02-21T08:51:20;15.85;;;11.00;;
55007;SDS011;40902;45.116;21.296;2024-02-21T08:53:47;12.20;;;10.13;;
55007;SDS011;40902;45.116;21.296;2024-02-21T08:56:13;15.80;;;10.57;;
55007;SDS011;40902;45.116;21.296;2024-02-21T08:58:39;13.85;;;10.70;;
55007;SDS011;40902;45.116;21.296;2024-02-21T09:01:06;16.25;;;10.65;;
55007;SDS011;40902;45.116;21.296;2024-02-21T09:03:35;12.57;;;9.57;;
55007;SDS011;40902;45.116;21.296;2024-02-21T09:06:02;15.40;;;9.73;;
55007;SDS011;40902;45.116;21.296;2024-02-21T09:08:28;14.23;;;9.13;;
55007;SDS011;40902;45.116;21.296;2024-02-21T09:10:55;13.43;;;9.85;;
55007;SDS011;40902;45.116;21.296;2024-02-21T09:13:21;13.93;;;9.68;;
55007;SDS011;40902;45.116;21.296;2024-02-21T09:15:47;13.52;;;9.27;;
55007;SDS011;40902;45.116;21.296;2024-02-21T09:18:14;12.05;;;9.23;;
55007;SDS011;40902;45.116;21.296;2024-02-21T09:20:40;14.02;;;9.13;;
55007;SDS011;40902;45.116;21.296;2024-02-21T09:23:06;12.55;;;8.27;;
55007;SDS011;40902;45.116;21.296;2024-02-21T09:25:32;10.43;;;8.45;;
55007;SDS011;40902;45.116;21.296;2024-02-21T09:27:58;13.38;;;8.55;;
55007;SDS011;40902;45.116;21.296;2024-02-21T09:30:24;11.23;;;7.53;;
55007;SDS011;40902;45.116;21.296;2024-02-21T09:32:50;11.05;;;8.25;;
55007;SDS011;40902;45.116;21.296;2024-02-21T09:35:16;9.77;;;7.43;;
55007;SDS011;40902;45.116;21.296;2024-02-21T09:37:42;11.05;;;7.55;;
55007;SDS011;40902;45.116;21.296;2024-02-21T09:40:08;8.85;;;6.88;;
55007;SDS011;40902;45.116;21.296;2024-02-21T09:42:38;11.40;;;7.70;;
55007;SDS011;40902;45.116;21.296;2024-02-21T09:45:07;11.07;;;6.78;;
55007;SDS011;40902;45.116;21.296;2024-02-21T09:47:50;11.10;;;6.32;;
55007;SDS011;40902;45.116;21.296;2024-02-21T09:50:34;29.23;;;17.20;;
55007;SDS011;40902;45.116;21.296;2024-02-21T09:53:03;70.25;;;34.22;;
55007;SDS011;40902;45.116;21.296;2024-02-21T09:55:31;22.48;;;12.65;;
55007;SDS011;40902;45.116;21.296;2024-02-21T09:57:59;11.65;;;7.03;;
55007;SDS011;40902;45.116;21.296;2024-02-21T10:00:27;8.63;;;6.65;;
55007;SDS011;40902;45.116;21.296;2024-02-21T10:02:53;9.85;;;7.10;;
55007;SDS011;40902;45.116;21.296;2024-02-21T10:05:19;14.48;;;8.57;;
55007;SDS011;40902;45.116;21.296;2024-02-21T10:07:45;16.88;;;12.35;;
55007;SDS011;40902;45.116;21.296;2024-02-21T10:10:12;9.95;;;7.65;;
55007;SDS011;40902;45.116;21.296;2024-02-21T10:12:47;9.00;;;6.65;;
55007;SDS011;40902;45.116;21.296;2024-02-21T10:15:19;18.50;;;13.95;;
55007;SDS011;40902;45.116;21.296;2024-02-21T10:17:46;10.60;;;8.02;;
55007;SDS011;40902;45.116;21.296;2024-02-21T10:20:11;9.98;;;6.80;;
55007;SDS011;40902;45.116;21.296;2024-02-21T10:22:39;10.02;;;6.45;;
55007;SDS011;40902;45.116;21.296;2024-02-21T10:25:08;11.38;;;7.25;;
55007;SDS011;40902;45.116;21.296;2024-02-21T10:27:35;11.00;;;6.63;;
55007;SDS011;40902;45.116;21.296;2024-02-21T10:30:02;10.52;;;7.43;;
55007;SDS011;40902;45.116;21.296;2024-02-21T10:32:28;12.02;;;7.78;;
55007;SDS011;40902;45.116;21.296;2024-02-21T10:35:02;13.07;;;9.05;;
55007;SDS011;40902;45.116;21.296;2024-02-21T10:37:29;13.10;;;8.40;;
55007;SDS011;40902;45.116;21.296;2024-02-21T10:39:56;11.95;;;8.15;;
55007;SDS011;40902;45.116;21.296;2024-02-21T10:42:22;8.63;;;6.60;;
55007;SDS011;40902;45.116;21.296;2024-02-21T10:44:54;9.27;;;6.80;;
55007;SDS011;40902;45.116;21.296;2024-02-21T10:47:25;10.15;;;6.90;;
55007;SDS011;40902;45.116;21.296;2024-02-21T10:49:57;8.85;;;6.40;;
55007;SDS011;40902;45.116;21.296;2024-02-21T10:55:19;9.27;;;6.10;;
55007;SDS011;40902;45.116;21.296;2024-02-21T10:57:50;9.65;;;7.18;;
55007;SDS011;40902;45.116;21.296;2024-02-21T11:00:17;13.07;;;8.90;;
55007;SDS011;40902;45.116;21.296;2024-02-21T11:02:44;9.40;;;6.93;;
55007;SDS011;40902;45.116;21.296;2024-02-21T11:05:11;9.63;;;6.30;;
55007;SDS011;40902;45.116;21.296;2024-02-21T11:07:38;8.88;;;5.72;;
55007;SDS011;40902;45.116;21.296;2024-02-21T11:10:05;6.97;;;4.53;;
55007;SDS011;40902;45.116;21.296;2024-02-21T11:12:45;8.60;;;5.32;;
55007;SDS011;40902;45.116;21.296;2024-02-21T11:15:13;10.82;;;5.30;;
55007;SDS011;40902;45.116;21.296;2024-02-21T11:17:39;9.43;;;5.10;;
55007;SDS011;40902;45.116;21.296;2024-02-21T11:20:14;11.35;;;6.10;;
55007;SDS011;40902;45.116;21.296;2024-02-21T11:22:43;7.75;;;5.40;;
55007;SDS011;40902;45.116;21.296;2024-02-21T11:25:09;9.10;;;5.07;;
55007;SDS011;40902;45.116;21.296;2024-02-21T11:27:37;9.77;;;5.20;;
55007;SDS011;40902;45.116;21.296;2024-02-21T11:30:04;8.75;;;5.45;;
55007;SDS011;40902;45.116;21.296;2024-02-21T11:32:30;11.02;;;5.35;;
55007;SDS011;40902;45.116;21.296;2024-02-21T11:34:56;9.13;;;6.03;;
55007;SDS011;40902;45.116;21.296;2024-02-21T11:37:33;7.70;;;5.00;;
55007;SDS011;40902;45.116;21.296;2024-02-21T11:40:02;8.70;;;4.53;;
55007;SDS011;40902;45.116;21.296;2024-02-21T11:42:28;10.13;;;4.30;;
55007;SDS011;40902;45.116;21.296;2024-02-21T11:44:59;9.23;;;5.15;;
55007;SDS011;40902;45.116;21.296;2024-02-21T11:47:25;9.43;;;4.50;;
55007;SDS011;40902;45.116;21.296;2024-02-21T11:49:53;10.65;;;5.50;;
55007;SDS011;40902;45.116;21.296;2024-02-21T11:52:22;8.45;;;4.28;;
55007;SDS011;40902;45.116;21.296;2024-02-21T11:54:52;7.72;;;4.88;;
55007;SDS011;40902;45.116;21.296;2024-02-21T11:57:19;8.82;;;4.55;;
55007;SDS011;40902;45.116;21.296;2024-02-21T11:59:45;8.23;;;3.80;;
55007;SDS011;40902;45.116;21.296;2024-02-21T12:02:15;6.38;;;3.60;;
55007;SDS011;40902;45.116;21.296;2024-02-21T12:04:41;9.88;;;4.20;;
55007;SDS011;40902;45.116;21.296;2024-02-21T12:07:08;8.70;;;4.43;;
55007;SDS011;40902;45.116;21.296;2024-02-21T12:09:34;6.63;;;4.05;;
55007;SDS011;40902;45.116;21.296;2024-02-21T12:12:04;9.82;;;5.18;;
55007;SDS011;40902;45.116;21.296;2024-02-21T12:14:31;10.00;;;4.20;;
55007;SDS011;40902;45.116;21.296;2024-02-21T12:16:58;10.50;;;4.65;;
55007;SDS011;40902;45.116;21.296;2024-02-21T12:19:25;10.85;;;4.25;;
55007;SDS011;40902;45.116;21.296;2024-02-21T12:21:51;9.07;;;4.45;;
55007;SDS011;40902;45.116;21.296;2024-02-21T12:24:26;8.10;;;4.47;;
55007;SDS011;40902;45.116;21.296;2024-02-21T12:29:20;18.25;;;9.48;;
55007;SDS011;40902;45.116;21.296;2024-02-21T12:31:46;11.45;;;5.95;;
55007;SDS011;40902;45.116;21.296;2024-02-21T12:34:12;10.68;;;6.15;;
55007;SDS011;40902;45.116;21.296;2024-02-21T12:36:41;10.98;;;5.10;;
55007;SDS011;40902;45.116;21.296;2024-02-21T12:39:08;12.40;;;5.53;;
55007;SDS011;40902;45.116;21.296;2024-02-21T12:41:35;11.70;;;5.20;;
55007;SDS011;40902;45.116;21.296;2024-02-21T12:44:03;13.23;;;6.63;;
55007;SDS011;40902;45.116;21.296;2024-02-21T12:46:32;14.45;;;6.53;;
55007;SDS011;40902;45.116;21.296;2024-02-21T12:49:01;8.93;;;5.70;;
55007;SDS011;40902;45.116;21.296;2024-02-21T12:51:28;8.77;;;5.28;;
55007;SDS011;40902;45.116;21.296;2024-02-21T12:53:54;9.27;;;5.30;;
55007;SDS011;40902;45.116;21.296;2024-02-21T12:56:20;11.45;;;6.18;;
55007;SDS011;40902;45.116;21.296;2024-02-21T12:58:46;12.57;;;6.03;;
55007;SDS011;40902;45.116;21.296;2024-02-21T13:01:12;10.85;;;6.13;;
55007;SDS011;40902;45.116;21.296;2024-02-21T13:03:38;8.75;;;5.93;;
55007;SDS011;40902;45.116;21.296;2024-02-21T13:06:04;12.88;;;6.03;;
55007;SDS011;40902;45.116;21.296;2024-02-21T13:08:31;15.82;;;8.98;;
55007;SDS011;40902;45.116;21.296;2024-02-21T13:10:56;13.95;;;7.03;;
55007;SDS011;40902;45.116;21.296;2024-02-21T13:13:22;11.43;;;5.60;;
55007;SDS011;40902;45.116;21.296;2024-02-21T13:15:48;10.63;;;5.53;;
55007;SDS011;40902;45.116;21.296;2024-02-21T13:18:14;9.80;;;4.90;;
55007;SDS011;40902;45.116;21.296;2024-02-21T13:20:39;11.75;;;4.97;;
55007;SDS011;40902;45.116;21.296;2024-02-21T13:23:05;10.38;;;4.88;;
55007;SDS011;40902;45.116;21.296;2024-02-21T13:25:31;9.55;;;4.30;;
55007;SDS011;40902;45.116;21.296;2024-02-21T13:27:57;8.15;;;4.35;;
55007;SDS011;40902;45.116;21.296;2024-02-21T13:30:22;7.78;;;4.90;;
55007;SDS011;40902;45.116;21.296;2024-02-21T13:32:50;8.88;;;5.30;;
55007;SDS011;40902;45.116;21.296;2024-02-21T13:35:15;11.43;;;5.10;;
55007;SDS011;40902;45.116;21.296;2024-02-21T13:37:41;12.57;;;5.88;;
55007;SDS011;40902;45.116;21.296;2024-02-21T13:40:07;9.55;;;4.55;;
55007;SDS011;40902;45.116;21.296;2024-02-21T13:42:36;13.13;;;4.63;;
55007;SDS011;40902;45.116;21.296;2024-02-21T13:45:03;8.05;;;4.30;;
55007;SDS011;40902;45.116;21.296;2024-02-21T13:47:33;7.93;;;4.43;;
55007;SDS011;40902;45.116;21.296;2024-02-21T13:49:59;11.50;;;7.18;;
55007;SDS011;40902;45.116;21.296;2024-02-21T13:52:25;7.88;;;3.60;;
55007;SDS011;40902;45.116;21.296;2024-02-21T13:54:53;5.75;;;3.65;;
55007;SDS011;40902;45.116;21.296;2024-02-21T13:57:19;7.05;;;4.15;;
55007;SDS011;40902;45.116;21.296;2024-02-21T13:59:45;6.03;;;4.15;;
55007;SDS011;40902;45.116;21.296;2024-02-21T14:02:11;8.90;;;6.03;;
55007;SDS011;40902;45.116;21.296;2024-02-21T14:04:38;7.78;;;4.85;;
55007;SDS011;40902;45.116;21.296;2024-02-21T14:07:04;8.20;;;5.63;;
55007;SDS011;40902;45.116;21.296;2024-02-21T14:09:30;7.00;;;3.10;;
55007;SDS011;40902;45.116;21.296;2024-02-21T14:11:57;7.68;;;4.43;;
55007;SDS011;40902;45.116;21.296;2024-02-21T14:14:23;6.47;;;3.05;;
55007;SDS011;40902;45.116;21.296;2024-02-21T14:16:48;8.10;;;3.65;;
55007;SDS011;40902;45.116;21.296;2024-02-21T14:19:14;8.80;;;4.43;;
55007;SDS011;40902;45.116;21.296;2024-02-21T14:21:40;5.60;;;3.60;;
55007;SDS011;40902;45.116;21.296;2024-02-21T14:24:06;7.07;;;4.28;;